Time;durP1;ratioP1;P1;durP2;ratioP2;P2;SDS_P1;SDS_P2;PMS_P1;PMS_P2;Temp;Humidity;BMP_temperature;BMP_pressure;BME280_temperature;BME280_humidity;BME280_pressure;Samples;Min_cycle;Max_cycle;Signal;HPM_P1;HPM_P2
2020/12/28 00:00:13;;;;;;;1.80;1.70;;;;;;;4.29;100.00;97300.31;5033711;28;20584;-72
2020/12/28 00:02:42;;;;;;;1.60;1.50;;;;;;;4.18;100.00;97294.78;5051088;28;20175;-72
2020/12/28 00:05:12;;;;;;;1.53;1.40;;;;;;;4.25;100.00;97301.28;5032805;28;20709;-72
2020/12/28 00:07:44;;;;;;;1.70;1.40;;;;;;;4.13;100.00;97302.97;5051747;28;20194;-72
2020/12/28 00:10:11;;;;;;;1.50;1.40;;;;;;;4.31;100.00;97300.78;5050368;28;20295;-72
2020/12/28 00:12:49;;;;;;;1.40;1.30;;;;;;;4.20;100.00;97298.72;5050557;28;20188;-72
2020/12/28 00:15:16;;;;;;;1.83;1.53;;;;;;;4.13;100.00;97297.59;5049279;28;20207;-73
2020/12/28 00:17:48;;;;;;;1.83;1.57;;;;;;;4.14;100.00;97299.16;5034050;28;20259;-72
2020/12/28 00:20:14;;;;;;;1.83;1.60;;;;;;;4.16;100.00;97291.59;5052545;28;20227;-72
2020/12/28 00:22:40;;;;;;;1.70;1.60;;;;;;;4.25;100.00;97301.28;5057343;28;20184;-72
2020/12/28 00:25:05;;;;;;;1.37;1.27;;;;;;;4.28;98.91;97290.66;5023734;28;20176;-72
2020/12/28 00:27:31;;;;;;;2.50;2.00;;;;;;;4.24;98.97;97295.09;5056788;28;20225;-72
2020/12/28 00:29:57;;;;;;;1.53;1.40;;;;;;;4.20;98.47;97287.19;5033191;28;20253;-72
2020/12/28 00:32:26;;;;;;;1.87;1.60;;;;;;;4.20;98.46;97285.31;5029794;28;20258;-72
2020/12/28 00:34:52;;;;;;;1.67;1.33;;;;;;;4.25;97.68;97291.31;5033279;28;20208;-72
2020/12/28 00:37:18;;;;;;;1.60;1.50;;;;;;;4.24;97.99;97289.72;5038237;28;20226;-72
2020/12/28 00:39:46;;;;;;;1.63;1.53;;;;;;;4.32;97.73;97290.81;5056958;28;20247;-72
2020/12/28 00:42:12;;;;;;;1.53;1.43;;;;;;;4.34;97.82;97305.53;5053238;28;20223;-72
2020/12/28 00:44:37;;;;;;;2.03;1.60;;;;;;;4.37;96.51;97294.16;5049471;28;20649;-72
2020/12/28 00:47:03;;;;;;;2.37;1.57;;;;;;;4.38;97.37;97295.75;5029221;28;20224;-72
2020/12/28 00:49:31;;;;;;;6.83;3.43;;;;;;;4.42;97.41;97296.69;4997068;28;20566;-72
2020/12/28 00:51:57;;;;;;;2.13;1.53;;;;;;;4.52;96.07;97301.75;5008381;28;20220;-72
2020/12/28 00:54:22;;;;;;;4.57;2.40;;;;;;;4.56;96.34;97302.72;4996833;28;20532;-72
2020/12/28 00:56:51;;;;;;;1.33;1.23;;;;;;;4.63;94.65;97297.66;5026756;28;20228;-73
2020/12/28 00:59:17;;;;;;;1.40;1.30;;;;;;;4.70;95.38;97292.59;5032839;28;20200;-72
2020/12/28 01:01:42;;;;;;;20.57;7.60;;;;;;;4.69;94.89;97297.19;5049252;28;20229;-72
2020/12/28 01:04:11;;;;;;;1.20;1.10;;;;;;;4.68;95.48;97305.56;5049513;28;20176;-72
2020/12/28 01:06:54;;;;;;;1.10;1.00;;;;;;;4.81;95.11;97297.31;5034940;28;20612;-72
2020/12/28 01:09:43;;;;;;;1.13;1.03;;;;;;;4.69;95.10;97294.50;5044399;28;20211;-72
2020/12/28 01:12:11;;;;;;;2.43;1.73;;;;;;;4.76;94.71;97294.00;5029031;28;20232;-72
2020/12/28 01:14:38;;;;;;;2.73;1.77;;;;;;;4.83;94.16;97299.69;5012674;28;20207;-72
2020/12/28 01:17:04;;;;;;;1.40;1.30;;;;;;;4.88;94.29;97297.63;5029175;28;20580;-72
2020/12/28 01:19:40;;;;;;;1.07;1.00;;;;;;;4.87;94.70;97289.88;5045846;28;20188;-72
2020/12/28 01:22:05;;;;;;;1.13;1.00;;;;;;;4.82;93.81;97300.81;5032472;28;20712;-72
2020/12/28 01:24:32;;;;;;;1.97;1.50;;;;;;;4.88;94.64;97299.53;5016404;28;20245;-72
2020/12/28 01:26:58;;;;;;;1.30;1.20;;;;;;;4.86;94.87;97302.53;5033401;28;20207;-72
2020/12/28 01:29:24;;;;;;;1.10;1.00;;;;;;;5.00;93.94;97295.13;5036352;28;20207;-72
2020/12/28 01:31:52;;;;;;;1.10;1.10;;;;;;;5.03;93.12;97308.69;5052307;28;20220;-72
2020/12/28 01:34:43;;;;;;;1.33;0.97;;;;;;;5.01;93.58;97304.75;5041618;28;21002;-72
2020/12/28 01:37:09;;;;;;;1.23;1.00;;;;;;;5.08;92.40;97299.69;5035392;28;20221;-73
2020/12/28 01:39:48;;;;;;;1.30;1.10;;;;;;;5.09;93.01;97291.31;5039878;28;20200;-72
2020/12/28 01:42:14;;;;;;;0.90;0.90;;;;;;;5.03;93.47;97292.56;5036216;28;20359;-72
2020/12/28 01:44:43;;;;;;;1.20;1.10;;;;;;;5.01;93.98;97284.00;5056340;28;20183;-72
2020/12/28 01:47:23;;;;;;;1.03;1.00;;;;;;;4.82;94.72;97271.25;5042631;28;20246;-72
2020/12/28 01:49:52;;;;;;;0.97;0.97;;;;;;;4.86;95.35;97264.91;5056688;28;20206;-72
2020/12/28 01:52:20;;;;;;;1.17;1.07;;;;;;;4.94;95.09;97256.03;5055418;28;20249;-71
2020/12/28 01:54:47;;;;;;;1.20;1.10;;;;;;;4.91;95.25;97256.69;5038916;28;20187;-72
2020/12/28 01:57:16;;;;;;;1.63;1.10;;;;;;;4.97;95.23;97266.16;5055802;28;20226;-73
2020/12/28 01:59:50;;;;;;;1.00;1.00;;;;;;;4.82;95.26;97271.25;5072815;28;20203;-72
2020/12/28 02:02:26;;;;;;;1.20;1.10;;;;;;;4.90;95.83;97265.84;5041656;28;20699;-72
2020/12/28 02:04:56;;;;;;;1.10;1.00;;;;;;;4.83;95.70;97264.75;5039749;28;20653;-72
2020/12/28 02:07:26;;;;;;;0.83;0.83;;;;;;;5.00;94.86;97269.00;5055695;28;20272;-72
2020/12/28 02:09:52;;;;;;;0.80;0.80;;;;;;;4.89;95.79;97268.84;5023188;28;20269;-72
2020/12/28 02:12:19;;;;;;;0.90;0.90;;;;;;;4.85;95.42;97263.31;5038854;28;20288;-72
2020/12/28 02:14:45;;;;;;;1.10;1.00;;;;;;;4.87;95.64;97254.94;5071507;28;20183;-72
2020/12/28 02:17:36;;;;;;;0.70;0.70;;;;;;;4.92;95.97;97260.16;5032783;28;20268;-72
2020/12/28 02:20:20;;;;;;;0.80;0.80;;;;;;;4.91;95.45;97266.63;5029716;28;20190;-72
2020/12/28 02:22:46;;;;;;;0.77;0.77;;;;;;;4.93;95.24;97261.72;5039202;28;20175;-72
2020/12/28 02:25:12;;;;;;;0.60;0.60;;;;;;;4.91;95.07;97261.25;5021409;28;20178;-73
2020/12/28 02:27:41;;;;;;;1.53;0.80;;;;;;;4.89;95.20;97258.09;5039265;28;20234;-72
2020/12/28 02:30:10;;;;;;;0.80;0.80;;;;;;;4.97;95.65;97272.31;5039359;28;20628;-72
2020/12/28 02:32:58;;;;;;;0.60;0.60;;;;;;;4.96;95.09;97279.91;5058175;28;20563;-72
2020/12/28 02:35:40;;;;;;;0.60;0.60;;;;;;;4.98;94.65;97265.84;5042586;28;20287;-72
2020/12/28 02:38:08;;;;;;;0.80;0.80;;;;;;;4.93;94.54;97259.84;5055236;28;20666;-72
2020/12/28 02:40:34;;;;;;;0.60;0.60;;;;;;;4.86;95.56;97253.38;5038510;28;20210;-72
2020/12/28 02:43:02;;;;;;;0.90;0.70;;;;;;;4.95;95.46;97256.84;5072021;28;20182;-72
2020/12/28 02:45:49;;;;;;;0.60;0.60;;;;;;;4.97;94.64;97250.81;5043237;28;20661;-72
2020/12/28 02:48:35;;;;;;;0.70;0.70;;;;;;;5.02;95.14;97250.66;5037628;28;20337;-73
2020/12/28 02:51:19;;;;;;;0.43;0.43;;;;;;;5.04;94.93;97256.50;5070921;28;20310;-73
2020/12/28 02:54:03;;;;;;;0.63;0.63;;;;;;;4.91;94.88;97253.19;5043406;28;20190;-72
2020/12/28 02:56:47;;;;;;;0.70;0.70;;;;;;;4.91;95.60;97242.44;5071282;28;20288;-72
2020/12/28 02:59:31;;;;;;;0.60;0.60;;;;;;;4.99;95.10;97251.28;5073067;28;20694;-72
2020/12/28 03:02:28;;;;;;;0.60;0.60;;;;;;;4.98;95.76;97257.78;5027341;28;20302;-73
2020/12/28 03:05:14;;;;;;;0.57;0.57;;;;;;;4.87;96.17;97265.69;5057273;28;20221;-72
2020/12/28 03:08:02;;;;;;;0.60;0.60;;;;;;;4.90;96.56;97260.47;5058046;28;20214;-73
2020/12/28 03:10:48;;;;;;;0.50;0.50;;;;;;;4.95;96.23;97251.47;5072001;28;20598;-72
2020/12/28 03:13:32;;;;;;;0.93;0.67;;;;;;;4.80;96.36;97255.44;5046698;28;20190;-73
2020/12/28 03:16:16;;;;;;;0.60;0.60;;;;;;;4.72;96.68;97264.28;5074777;28;20252;-72
2020/12/28 03:19:00;;;;;;;0.80;0.63;;;;;;;4.92;96.50;97265.53;5061494;28;20320;-73
2020/12/28 03:21:44;;;;;;;0.60;0.60;;;;;;;4.82;97.83;97273.94;5060461;28;20703;-72
2020/12/28 03:24:30;;;;;;;0.70;0.70;;;;;;;4.79;97.87;97280.72;5060986;28;20822;-72
2020/12/28 03:27:17;;;;;;;2.13;0.60;;;;;;;4.83;96.54;97281.66;5074826;28;20359;-73
2020/12/28 03:30:02;;;;;;;1.83;0.60;;;;;;;4.87;97.19;97277.25;5043845;28;20244;-72
2020/12/28 03:32:46;;;;;;;0.70;0.70;;;;;;;4.92;96.63;97278.97;5039939;28;20239;-73
2020/12/28 03:35:30;;;;;;;0.60;0.60;;;;;;;4.76;97.87;97267.13;5056387;28;20288;-73
2020/12/28 03:38:32;;;;;;;0.60;0.60;;;;;;;4.90;97.17;97255.09;5022109;28;20208;-72
2020/12/28 03:41:16;;;;;;;0.53;0.53;;;;;;;4.94;97.17;97255.25;5067249;28;20738;-72
2020/12/28 03:44:08;;;;;;;1.03;0.70;;;;;;;4.88;97.44;97245.78;5042942;28;20718;-72
2020/12/28 03:46:52;;;;;;;0.70;0.70;;;;;;;4.91;97.19;97247.81;5057273;28;20229;-73
2020/12/28 03:49:36;;;;;;;0.50;0.50;;;;;;;4.77;97.53;97248.00;5043235;28;20249;-72
2020/12/28 03:52:21;;;;;;;0.60;0.60;;;;;;;4.72;98.59;97250.06;5071032;28;20230;-72
2020/12/28 03:55:09;;;;;;;0.97;0.60;;;;;;;4.60;98.34;97244.56;5057134;28;20225;-73
2020/12/28 03:57:53;;;;;;;1.13;0.60;;;;;;;4.65;98.75;97249.75;5057656;28;20217;-72
2020/12/28 04:00:37;;;;;;;0.70;0.70;;;;;;;4.63;98.36;97238.53;5056219;28;20594;-72
2020/12/28 04:03:41;;;;;;;0.60;0.60;;;;;;;4.50;98.99;97239.50;5000351;28;20228;-72
2020/12/28 04:06:27;;;;;;;0.60;0.60;;;;;;;4.52;99.26;97237.28;4982699;28;20290;-73
2020/12/28 04:09:14;;;;;;;0.60;0.60;;;;;;;4.42;99.39;97242.97;5035677;28;20271;-72
2020/12/28 04:12:00;;;;;;;1.70;0.70;;;;;;;4.46;99.33;97246.59;5051125;28;20268;-72
2020/12/28 04:14:32;;;;;;;0.60;0.60;;;;;;;4.49;98.62;97248.69;5071956;28;20209;-72
2020/12/28 04:16:58;;;;;;;0.67;0.67;;;;;;;4.42;99.66;97259.09;5052904;28;20230;-72
2020/12/28 04:19:25;;;;;;;0.60;0.60;;;;;;;4.29;99.76;97257.34;5053571;28;20206;-72
2020/12/28 04:21:51;;;;;;;0.53;0.53;;;;;;;4.35;100.00;97256.09;5069499;28;20222;-72
2020/12/28 04:24:21;;;;;;;0.70;0.70;;;;;;;4.25;100.00;97261.78;5069714;28;20654;-72
2020/12/28 04:26:49;;;;;;;0.60;0.60;;;;;;;4.25;100.00;97271.72;5069534;28;20306;-72
2020/12/28 04:29:15;;;;;;;0.73;0.57;;;;;;;4.34;100.00;97273.31;5036799;28;20210;-72
2020/12/28 04:31:43;;;;;;;0.50;0.50;;;;;;;4.39;100.00;97275.03;5053004;28;20222;-72
2020/12/28 04:34:09;;;;;;;0.40;0.40;;;;;;;4.61;99.27;97262.25;5069589;28;20201;-73
2020/12/28 04:36:36;;;;;;;0.60;0.60;;;;;;;4.54;99.09;97275.34;5036245;28;20235;-72
2020/12/28 04:39:06;;;;;;;0.50;0.50;;;;;;;4.77;98.91;97266.03;5037138;28;20198;-72
2020/12/28 04:41:32;;;;;;;0.50;0.50;;;;;;;4.55;99.66;97258.16;5036734;28;20233;-72
2020/12/28 04:43:58;;;;;;;0.53;0.53;;;;;;;4.61;99.78;97262.25;5036809;28;20179;-72
2020/12/28 04:46:27;;;;;;;0.63;0.60;;;;;;;4.71;99.49;97267.31;5015878;28;20223;-72
2020/12/28 04:48:52;;;;;;;0.80;0.60;;;;;;;4.75;98.88;97268.25;5001011;28;20195;-72
2020/12/28 04:51:20;;;;;;;0.40;0.40;;;;;;;4.71;99.22;97270.00;5026700;28;20614;-72
2020/12/28 04:53:50;;;;;;;0.60;0.60;;;;;;;4.78;99.06;97257.66;5053839;28;20253;-72
2020/12/28 04:56:15;;;;;;;0.47;0.40;;;;;;;4.92;97.99;97274.38;5052382;28;20223;-72
2020/12/28 04:58:44;;;;;;;0.40;0.40;;;;;;;4.84;98.11;97269.03;5070086;28;20210;-72
2020/12/28 05:01:17;;;;;;;0.43;0.43;;;;;;;4.84;98.63;97266.34;5053375;28;20225;-72
2020/12/28 05:03:44;;;;;;;0.50;0.50;;;;;;;4.90;98.52;97263.16;5020552;28;20610;-72
2020/12/28 05:06:10;;;;;;;0.50;0.50;;;;;;;4.99;97.81;97259.34;5035897;28;20215;-72
2020/12/28 05:08:42;;;;;;;0.50;0.50;;;;;;;5.16;96.53;97253.94;5052815;28;20210;-72
2020/12/28 05:11:08;;;;;;;0.50;0.50;;;;;;;4.98;97.20;97260.47;5052415;28;20284;-72
2020/12/28 05:13:34;;;;;;;1.23;0.40;;;;;;;4.95;97.67;97267.59;5036336;28;20182;-72
2020/12/28 05:15:59;;;;;;;0.40;0.40;;;;;;;5.05;97.03;97273.41;5068571;28;20215;-72
2020/12/28 05:18:25;;;;;;;0.40;0.40;;;;;;;5.17;96.46;97268.97;5038888;28;20630;-72
2020/12/28 05:20:51;;;;;;;0.50;0.50;;;;;;;5.16;96.42;97259.31;5056232;28;20210;-73
2020/12/28 05:23:17;;;;;;;0.40;0.40;;;;;;;5.24;96.57;97261.22;5023627;28;20186;-72
2020/12/28 05:25:47;;;;;;;0.43;0.43;;;;;;;5.06;96.30;97259.66;5055857;28;20211;-72
2020/12/28 05:28:26;;;;;;;0.40;0.40;;;;;;;5.19;96.49;97263.28;5040249;28;20171;-72
2020/12/28 05:30:59;;;;;;;0.50;0.50;;;;;;;5.25;96.04;97251.22;5057706;28;20217;-72
2020/12/28 05:33:32;;;;;;;0.40;0.40;;;;;;;5.11;96.22;97248.75;5041504;28;20179;-72
2020/12/28 05:35:57;;;;;;;0.30;0.30;;;;;;;5.24;96.24;97245.06;5021411;28;20243;-72
2020/12/28 05:38:23;;;;;;;0.40;0.40;;;;;;;5.10;96.30;97236.41;5053026;28;20234;-72
2020/12/28 05:40:49;;;;;;;0.30;0.30;;;;;;;5.28;95.65;97229.88;5035770;28;20599;-72
2020/12/28 05:43:15;;;;;;;0.40;0.40;;;;;;;5.23;95.79;97243.47;5020099;28;20203;-72
2020/12/28 05:45:45;;;;;;;0.50;0.50;;;;;;;5.27;95.61;97238.25;5051513;28;20223;-72
2020/12/28 05:48:12;;;;;;;1.17;0.40;;;;;;;5.35;95.53;97235.53;5054547;28;20290;-72
2020/12/28 05:50:38;;;;;;;0.37;0.30;;;;;;;5.31;95.76;97242.69;5002897;28;20227;-72
2020/12/28 05:53:04;;;;;;;0.30;0.30;;;;;;;5.27;95.93;97246.31;5020145;28;20565;-72
2020/12/28 05:55:32;;;;;;;0.30;0.30;;;;;;;5.31;96.33;97250.75;5035307;28;20230;-72
2020/12/28 05:58:00;;;;;;;0.40;0.40;;;;;;;5.34;95.91;97254.69;5037611;28;20183;-72
2020/12/28 06:00:26;;;;;;;0.30;0.30;;;;;;;5.33;95.62;97274.63;5053189;28;20231;-72
2020/12/28 06:02:52;;;;;;;0.40;0.40;;;;;;;5.28;96.15;97280.97;5021657;28;20710;-72
2020/12/28 06:05:19;;;;;;;0.40;0.40;;;;;;;5.36;95.69;97282.84;5055327;28;20230;-72
2020/12/28 06:07:46;;;;;;;0.50;0.50;;;;;;;5.30;95.90;97281.44;5024545;28;20194;-72
2020/12/28 06:10:14;;;;;;;0.40;0.40;;;;;;;5.37;95.49;97281.75;5043480;28;20231;-71
2020/12/28 06:12:40;;;;;;;0.30;0.30;;;;;;;5.42;94.97;97295.00;5020805;28;20219;-72
2020/12/28 06:15:19;;;;;;;0.40;0.40;;;;;;;5.34;95.23;97293.13;5051642;28;20258;-72
2020/12/28 06:17:47;;;;;;;0.40;0.40;;;;;;;5.25;95.56;97294.25;5020740;28;20554;-72
2020/12/28 06:20:15;;;;;;;0.40;0.40;;;;;;;5.36;95.36;97285.53;5038207;28;20210;-72
2020/12/28 06:22:41;;;;;;;0.47;0.40;;;;;;;5.30;95.62;97281.44;5021179;28;20187;-73
2020/12/28 06:25:08;;;;;;;0.40;0.40;;;;;;;5.37;94.99;97281.75;5019799;28;20184;-74
2020/12/28 06:27:37;;;;;;;0.40;0.40;;;;;;;5.37;94.94;97262.91;5035646;28;20797;-73
2020/12/28 06:30:13;;;;;;;0.57;0.50;;;;;;;5.45;94.23;97246.72;5018454;28;20200;-73
2020/12/28 06:32:39;;;;;;;0.60;0.50;;;;;;;5.43;94.73;97253.53;5019627;28;20179;-73
2020/12/28 06:35:15;;;;;;;0.40;0.40;;;;;;;5.40;95.37;97257.69;5002071;28;20281;-73
2020/12/28 06:37:53;;;;;;;0.40;0.40;;;;;;;5.48;94.46;97264.13;5040953;28;20248;-72
2020/12/28 06:40:35;;;;;;;0.53;0.53;;;;;;;5.54;94.29;97273.59;5055530;28;20554;-76
2020/12/28 06:43:21;;;;;;;0.50;0.50;;;;;;;5.62;93.63;97289.69;5055430;28;20584;-71
2020/12/28 06:45:50;;;;;;;0.40;0.40;;;;;;;5.53;93.75;97288.16;5038364;28;20221;-77
2020/12/28 06:48:19;;;;;;;0.50;0.50;;;;;;;5.50;94.60;97296.88;5038652;28;20582;-72
2020/12/28 06:50:45;;;;;;;0.60;0.43;;;;;;;5.40;95.27;97302.59;5021865;28;20611;-73
2020/12/28 06:53:19;;;;;;;0.60;0.60;;;;;;;5.35;95.62;97297.41;5072885;28;20186;-72
2020/12/28 06:55:47;;;;;;;1.53;0.60;;;;;;;5.50;94.75;97286.13;5037731;28;20222;-72
2020/12/28 06:58:13;;;;;;;0.47;0.40;;;;;;;5.57;94.58;97291.81;5055853;28;20186;-72
2020/12/28 07:00:38;;;;;;;0.40;0.40;;;;;;;5.55;94.02;97296.69;5071263;28;20219;-73
2020/12/28 07:03:12;;;;;;;0.60;0.60;;;;;;;5.42;94.43;97305.75;5055986;28;20175;-72
2020/12/28 07:05:40;;;;;;;0.40;0.40;;;;;;;5.44;95.28;97292.81;5038917;28;20287;-73
2020/12/28 07:08:09;;;;;;;0.40;0.40;;;;;;;5.53;94.59;97307.00;5039623;28;20195;-72
2020/12/28 07:10:35;;;;;;;0.50;0.50;;;;;;;5.47;95.04;97306.38;5038264;28;20600;-72
2020/12/28 07:13:04;;;;;;;0.50;0.50;;;;;;;5.58;95.29;97296.06;5071973;28;20187;-72
2020/12/28 07:15:30;;;;;;;0.50;0.50;;;;;;;5.55;95.47;97291.31;5070694;28;20285;-72
2020/12/28 07:18:06;;;;;;;0.50;0.50;;;;;;;5.55;95.22;97283.25;5038938;28;20841;-72
2020/12/28 07:20:31;;;;;;;0.50;0.50;;;;;;;5.46;95.51;97285.19;5038186;28;20222;-73
2020/12/28 07:22:57;;;;;;;0.50;0.50;;;;;;;5.43;95.96;97281.22;5038380;28;20202;-73
2020/12/28 07:25:23;;;;;;;0.37;0.37;;;;;;;5.51;95.43;97293.06;5036612;28;20194;-73
2020/12/28 07:27:48;;;;;;;0.40;0.40;;;;;;;5.55;95.86;97296.69;5054791;28;20186;-72
2020/12/28 07:30:16;;;;;;;0.40;0.40;;;;;;;5.60;95.20;97304.59;5053443;28;20251;-72
2020/12/28 07:32:41;;;;;;;0.50;0.50;;;;;;;5.51;96.07;97303.84;5037389;28;20183;-73
2020/12/28 07:35:07;;;;;;;0.50;0.50;;;;;;;5.50;96.37;97296.88;5052961;28;20214;-73
2020/12/28 07:37:38;;;;;;;0.50;0.50;;;;;;;5.50;96.58;97304.97;5037854;28;20190;-71
2020/12/28 07:40:04;;;;;;;1.33;0.50;;;;;;;5.52;96.99;97294.66;5053098;28;20199;-73
2020/12/28 07:42:34;;;;;;;0.47;0.47;;;;;;;5.55;96.66;97294.00;5037729;28;20171;-73
2020/12/28 07:45:05;;;;;;;0.43;0.43;;;;;;;5.49;97.18;97308.75;5070532;28;20201;-71
2020/12/28 07:47:46;;;;;;;0.73;0.57;;;;;;;5.53;97.25;97307.00;5036770;28;20234;-71
2020/12/28 07:50:13;;;;;;;0.80;0.50;;;;;;;5.39;97.59;97306.41;5069930;28;20199;-72
2020/12/28 07:53:00;;;;;;;0.60;0.60;;;;;;;5.41;97.97;97301.50;5037308;28;20280;-72
2020/12/28 07:55:27;;;;;;;0.57;0.57;;;;;;;5.40;97.85;97305.28;5054973;28;20230;-72
2020/12/28 07:58:22;;;;;;;1.27;0.60;;;;;;;5.52;97.17;97314.28;5054078;28;20182;-72
2020/12/28 08:00:50;;;;;;;1.07;0.60;;;;;;;5.45;97.63;97321.25;5053328;28;20225;-72
2020/12/28 08:03:26;;;;;;;1.20;0.60;;;;;;;5.45;97.75;97327.44;5037272;28;20191;-72
2020/12/28 08:05:52;;;;;;;0.60;0.60;;;;;;;5.40;97.69;97334.88;5036903;28;20215;-71
2020/12/28 08:08:22;;;;;;;0.90;0.90;;;;;;;5.40;97.76;97340.25;5020354;28;20563;-71
2020/12/28 08:10:56;;;;;;;0.83;0.83;;;;;;;5.41;97.90;97336.47;5036996;28;20238;-71
2020/12/28 08:13:26;;;;;;;0.80;0.80;;;;;;;5.31;97.39;97342.19;5038781;28;20285;-73
2020/12/28 08:16:05;;;;;;;1.10;0.83;;;;;;;5.28;97.86;97350.91;5053564;28;20635;-72
2020/12/28 08:18:31;;;;;;;1.00;0.90;;;;;;;5.21;97.43;97360.56;5037799;28;20202;-72
2020/12/28 08:20:57;;;;;;;1.23;1.00;;;;;;;5.09;97.86;97355.84;5070245;28;20321;-72
2020/12/28 08:23:32;;;;;;;1.20;1.03;;;;;;;5.24;96.75;97349.97;5037515;28;20183;-72
2020/12/28 08:25:58;;;;;;;1.37;1.00;;;;;;;5.28;96.45;97361.66;5069555;28;20218;-72
2020/12/28 08:28:26;;;;;;;1.50;1.20;;;;;;;5.22;96.15;97362.94;5038016;28;20660;-72
2020/12/28 08:30:52;;;;;;;1.90;1.20;;;;;;;5.26;96.22;97376.53;5052848;28;20230;-73
2020/12/28 08:33:18;;;;;;;1.67;1.00;;;;;;;5.40;95.87;97377.94;5053570;28;20215;-72
2020/12/28 08:35:49;;;;;;;1.20;1.10;;;;;;;5.35;95.55;97370.81;5052304;28;20227;-73
2020/12/28 08:38:15;;;;;;;3.70;1.10;;;;;;;5.30;95.94;97374.78;5036934;28;20175;-73
2020/12/28 08:40:52;;;;;;;1.07;1.00;;;;;;;5.26;96.17;97393.47;5036335;28;20218;-72
2020/12/28 08:43:23;;;;;;;1.40;1.30;;;;;;;5.38;95.86;97386.34;5039249;28;20677;-72
2020/12/28 08:45:48;;;;;;;1.63;1.00;;;;;;;5.28;95.23;97398.53;5052136;28;20626;-72
2020/12/28 08:48:20;;;;;;;2.60;1.13;;;;;;;5.23;95.36;97404.84;5054033;28;20186;-70
2020/12/28 08:50:48;;;;;;;2.13;1.37;;;;;;;5.16;95.39;97392.97;5036540;28;20704;-71
2020/12/28 08:53:20;;;;;;;1.33;1.20;;;;;;;5.08;95.31;97391.09;5057885;28;20183;-73
2020/12/28 08:55:48;;;;;;;2.43;1.33;;;;;;;5.08;95.73;97389.19;5023502;28;20226;-72
2020/12/28 08:58:19;;;;;;;1.40;1.20;;;;;;;5.19;95.39;97379.69;5041012;28;20191;-72
2020/12/28 09:00:47;;;;;;;1.37;1.13;;;;;;;5.25;95.89;97364.97;5039744;28;20818;-73
2020/12/28 09:03:13;;;;;;;1.20;1.10;;;;;;;5.26;94.84;97363.88;5073953;28;20187;-73
2020/12/28 09:05:41;;;;;;;1.20;1.10;;;;;;;5.38;95.12;97372.06;5039930;28;20221;-72
2020/12/28 09:08:07;;;;;;;1.23;1.13;;;;;;;5.41;94.13;97384.91;5057200;28;20191;-73
2020/12/28 09:10:32;;;;;;;1.60;1.27;;;;;;;5.38;93.78;97375.56;5074111;28;20309;-73
2020/12/28 09:12:58;;;;;;;1.27;1.17;;;;;;;5.47;93.52;97368.25;5073765;28;20608;-73
2020/12/28 09:15:26;;;;;;;2.90;1.10;;;;;;;5.43;93.57;97367.31;5039627;28;20404;-72
2020/12/28 09:17:52;;;;;;;1.30;1.20;;;;;;;5.70;90.89;97377.72;5057097;28;20179;-73
2020/12/28 09:20:17;;;;;;;1.13;1.00;;;;;;;5.55;91.59;97374.72;5039623;28;20235;-73
2020/12/28 09:22:43;;;;;;;1.70;1.40;;;;;;;5.55;92.13;97380.09;5056600;28;20545;-73
2020/12/28 09:25:09;;;;;;;1.30;1.20;;;;;;;5.70;91.59;97376.94;5039279;28;20244;-73
2020/12/28 09:27:37;;;;;;;1.33;1.23;;;;;;;5.82;91.71;97381.34;5073210;28;20171;-72
2020/12/28 09:30:07;;;;;;;1.30;1.20;;;;;;;5.57;90.71;97380.59;5056130;28;20198;-72
2020/12/28 09:32:33;;;;;;;1.27;1.17;;;;;;;5.62;90.36;97383.09;5056902;28;20179;-72
2020/12/28 09:34:59;;;;;;;1.20;1.10;;;;;;;5.63;91.32;97392.78;5039462;28;20190;-72
2020/12/28 09:37:24;;;;;;;1.47;1.10;;;;;;;5.66;91.70;97387.56;5069077;28;20719;-72
2020/12/28 09:39:50;;;;;;;1.27;1.17;;;;;;;5.91;91.15;97389.41;5073135;28;20199;-73
2020/12/28 09:42:16;;;;;;;3.40;1.30;;;;;;;6.01;89.30;97389.06;5055722;28;20226;-72
2020/12/28 09:44:41;;;;;;;1.33;1.20;;;;;;;5.71;89.05;97391.97;5070957;28;20660;-73
2020/12/28 09:47:10;;;;;;;1.13;1.03;;;;;;;5.83;90.24;97388.31;5009511;28;20220;-72
2020/12/28 09:49:35;;;;;;;1.20;1.00;;;;;;;5.85;88.76;97394.16;5019716;28;20218;-72
2020/12/28 09:52:03;;;;;;;1.80;1.17;;;;;;;5.60;91.07;97396.09;4999631;28;20247;-72
2020/12/28 09:54:29;;;;;;;1.23;1.13;;;;;;;5.87;91.05;97397.31;4999786;28;20569;-72
2020/12/28 09:56:55;;;;;;;1.20;1.10;;;;;;;5.88;91.03;97392.75;5015865;28;20255;-72
2020/12/28 09:59:26;;;;;;;1.07;1.00;;;;;;;5.84;90.85;97389.09;4984940;28;20712;-72
2020/12/28 10:01:54;;;;;;;2.20;1.23;;;;;;;6.14;89.05;97383.44;5000371;28;20724;-71
2020/12/28 10:04:19;;;;;;;1.33;1.10;;;;;;;5.96;89.36;97392.69;5032376;28;20189;-72
2020/12/28 10:06:45;;;;;;;1.70;1.60;;;;;;;5.98;90.13;97398.56;5015624;28;20236;-72
2020/12/28 10:09:15;;;;;;;2.07;1.87;;;;;;;5.73;91.29;97393.25;5000602;28;20201;-72
2020/12/28 10:11:41;;;;;;;1.80;1.60;;;;;;;5.67;92.16;97399.09;4999682;28;20239;-72
2020/12/28 10:14:07;;;;;;;1.50;1.40;;;;;;;5.99;91.12;97392.06;5032584;28;20861;-74
2020/12/28 10:16:33;;;;;;;1.33;1.23;;;;;;;6.04;90.18;97399.94;5031332;28;20235;-73
2020/12/28 10:19:01;;;;;;;1.33;1.23;;;;;;;5.95;90.71;97410.00;5016154;28;20196;-73
2020/12/28 10:21:27;;;;;;;1.00;1.00;;;;;;;6.04;90.70;97409.94;4999430;28;20223;-72
2020/12/28 10:23:55;;;;;;;1.30;1.20;;;;;;;6.10;90.47;97412.16;5008163;28;20196;-71
2020/12/28 10:26:23;;;;;;;1.60;1.07;;;;;;;6.14;90.21;97411.16;5025858;28;20718;-72
2020/12/28 10:28:51;;;;;;;1.20;1.10;;;;;;;6.26;90.11;97407.78;5038449;28;20195;-72
2020/12/28 10:31:17;;;;;;;1.20;1.10;;;;;;;6.18;89.38;97406.72;5046506;28;20277;-72
2020/12/28 10:33:43;;;;;;;1.10;1.00;;;;;;;6.26;89.54;97402.41;5027069;28;20180;-72
2020/12/28 10:36:19;;;;;;;1.20;1.10;;;;;;;6.27;89.78;97398.59;5031537;28;20246;-72
2020/12/28 10:38:46;;;;;;;1.77;0.90;;;;;;;6.39;88.92;97402.19;5011356;28;20195;-72
2020/12/28 10:41:12;;;;;;;1.20;1.10;;;;;;;6.41;88.62;97404.53;5030410;28;20215;-71
2020/12/28 10:43:40;;;;;;;1.87;1.20;;;;;;;6.49;88.59;97406.44;5034587;28;20807;-71
2020/12/28 10:46:10;;;;;;;1.53;1.20;;;;;;;6.31;88.19;97408.41;5041558;28;20219;-72
2020/12/28 10:48:36;;;;;;;1.30;1.10;;;;;;;6.50;88.61;97402.59;5032890;28;20708;-71
2020/12/28 10:51:09;;;;;;;0.90;0.90;;;;;;;6.68;88.22;97408.34;5026013;28;20227;-72
2020/12/28 10:53:34;;;;;;;1.30;1.00;;;;;;;6.72;87.38;97401.22;5063271;28;20183;-73
2020/12/28 10:56:05;;;;;;;0.93;0.90;;;;;;;6.80;87.08;97397.66;5019780;28;20215;-72
2020/12/28 10:58:31;;;;;;;1.20;1.10;;;;;;;6.65;87.68;97398.25;5048376;28;20200;-72
2020/12/28 11:00:57;;;;;;;1.53;1.20;;;;;;;6.68;87.55;97394.88;5051345;28;20292;-72
2020/12/28 11:03:25;;;;;;;1.00;0.90;;;;;;;6.81;87.51;97388.44;5062888;28;20683;-72
2020/12/28 11:05:50;;;;;;;1.20;1.10;;;;;;;6.85;86.82;97386.69;5017027;28;20215;-72
2020/12/28 11:08:16;;;;;;;1.33;1.00;;;;;;;6.70;87.76;97392.66;5044373;28;20179;-72
2020/12/28 11:10:42;;;;;;;1.43;0.97;;;;;;;6.79;87.84;97385.28;5026631;28;20816;-71
2020/12/28 11:13:10;;;;;;;1.10;0.97;;;;;;;6.75;88.15;97389.75;5051879;28;20186;-72
2020/12/28 11:15:36;;;;;;;1.17;0.97;;;;;;;6.70;88.01;97392.66;5052859;28;20298;-71
2020/12/28 11:18:02;;;;;;;1.70;1.20;;;;;;;6.69;87.92;97385.69;5037831;28;20179;-71
2020/12/28 11:20:28;;;;;;;1.63;1.20;;;;;;;6.87;87.12;97370.16;5030146;28;20228;-71
2020/12/28 11:22:53;;;;;;;1.20;1.07;;;;;;;6.69;87.73;97374.13;5062614;28;20180;-72
2020/12/28 11:25:19;;;;;;;1.57;1.10;;;;;;;6.88;87.45;97362.53;5014833;28;20556;-71
2020/12/28 11:27:44;;;;;;;1.30;1.20;;;;;;;6.78;87.32;97372.94;5050862;28;20191;-71
2020/12/28 11:30:10;;;;;;;2.50;1.40;;;;;;;6.92;86.92;97365.38;5033580;28;20212;-71
2020/12/28 11:32:38;;;;;;;2.73;1.37;;;;;;;6.94;86.00;97371.22;5051182;28;20191;-72
2020/12/28 11:35:04;;;;;;;1.53;1.20;;;;;;;6.86;86.86;97369.38;5033930;28;20529;-72
2020/12/28 11:37:32;;;;;;;1.50;1.40;;;;;;;6.82;87.05;97384.63;5050748;28;20305;-71
2020/12/28 11:39:58;;;;;;;1.43;1.33;;;;;;;6.86;86.67;97382.88;5061402;28;20210;-70
2020/12/28 11:42:26;;;;;;;1.43;1.33;;;;;;;6.78;87.05;97386.41;5012060;28;20294;-75
2020/12/28 11:44:53;;;;;;;1.80;1.40;;;;;;;6.93;86.46;97391.22;5019377;28;20718;-72
2020/12/28 11:47:19;;;;;;;3.10;2.57;;;;;;;6.64;87.25;97399.34;5058337;28;20304;-72
2020/12/28 11:49:47;;;;;;;3.07;2.30;;;;;;;6.70;86.86;97392.66;5053600;28;20199;-71
2020/12/28 11:52:13;;;;;;;2.70;2.07;;;;;;;6.78;86.89;97394.50;5001114;28;20238;-71
2020/12/28 11:54:39;;;;;;;1.67;1.57;;;;;;;6.90;86.67;97394.56;5036976;28;20188;-71
2020/12/28 11:57:04;;;;;;;6.17;4.60;;;;;;;6.99;86.23;97392.59;5066645;28;20634;-71